Francesville, Indiana
Current Conditions -  °F | °C
As of 3:55 AM on Friday 24 Oct 2014 (Local Time) from KRZL Reporting Station
Overcast Overcast  
Wind Chill: 10°   Ceiling: 3900
Heat Index: 10°   Visibility: 10mi
Dew Point:   Wind: 3mph
Humidity: 87%   Direction: 180°S
Pressure: 30.07"   Gusts: NA
Location:  40.99°N, 86.88°W
Report Text: KRZL 240855Z AUTO 18003KT 10SM SCT030 BKN039 OVC050 10/08 A3007 RMK AO2 P0001
Loading
Personal Weather Stations






























Interactive Weather Map
Tropical Storm Tracking
New forecast layout! Learn more

10-Day Weather Forecast

Advertisements
Track Severe Weather on mobile